sensor_id;sensor_type;location;lat;lon;timestamp;P1;durP1;ratioP1;P2;durP2;ratioP2
67429;SDS011;54298;52.076;5.264;2022-07-12T00:00:28;5.3;;;2.5;;
67429;SDS011;54298;52.076;5.264;2022-07-12T00:02:14;6.9;;;2.7;;
67429;SDS011;54298;52.076;5.264;2022-07-12T00:04:03;4.7;;;2.4;;
67429;SDS011;54298;52.076;5.264;2022-07-12T00:05:49;5.7;;;2.7;;
67429;SDS011;54298;52.076;5.264;2022-07-12T00:09:22;7.2;;;3.0;;
67429;SDS011;54298;52.076;5.264;2022-07-12T00:11:09;8.81;;;3.3;;
67429;SDS011;54298;52.076;5.264;2022-07-12T00:12:55;7.7;;;3.1;;
67429;SDS011;54298;52.076;5.264;2022-07-12T00:14:41;5.9;;;2.6;;
67429;SDS011;54298;52.076;5.264;2022-07-12T00:16:29;5.6;;;2.6;;
67429;SDS011;54298;52.076;5.264;2022-07-12T00:18:16;4.91;;;2.6;;
67429;SDS011;54298;52.076;5.264;2022-07-12T00:21:49;6.3;;;2.8;;
67429;SDS011;54298;52.076;5.264;2022-07-12T00:23:35;6.3;;;2.4;;
67429;SDS011;54298;52.076;5.264;2022-07-12T00:25:24;7.6;;;2.8;;
67429;SDS011;54298;52.076;5.264;2022-07-12T00:27:12;6.5;;;2.4;;
67429;SDS011;54298;52.076;5.264;2022-07-12T00:28:58;5.4;;;2.4;;
67429;SDS011;54298;52.076;5.264;2022-07-12T00:30:45;4.3;;;2.4;;
67429;SDS011;54298;52.076;5.264;2022-07-12T00:34:17;4.5;;;2.4;;
67429;SDS011;54298;52.076;5.264;2022-07-12T00:36:04;5.11;;;2.31;;
67429;SDS011;54298;52.076;5.264;2022-07-12T00:37:52;7.9;;;2.6;;
67429;SDS011;54298;52.076;5.264;2022-07-12T00:39:38;4.1;;;2.0;;
67429;SDS011;54298;52.076;5.264;2022-07-12T00:41:24;6.2;;;2.5;;
67429;SDS011;54298;52.076;5.264;2022-07-12T00:44:58;6.4;;;2.31;;
67429;SDS011;54298;52.076;5.264;2022-07-12T00:46:44;7.2;;;2.5;;
67429;SDS011;54298;52.076;5.264;2022-07-12T00:48:31;5.4;;;2.21;;
67429;SDS011;54298;52.076;5.264;2022-07-12T00:50:19;5.7;;;2.5;;
67429;SDS011;54298;52.076;5.264;2022-07-12T00:52:08;4.61;;;2.21;;
67429;SDS011;54298;52.076;5.264;2022-07-12T00:53:55;6.5;;;2.4;;
67429;SDS011;54298;52.076;5.264;2022-07-12T00:59:18;5.4;;;2.21;;
67429;SDS011;54298;52.076;5.264;2022-07-12T01:01:05;7.3;;;2.0;;
67429;SDS011;54298;52.076;5.264;2022-07-12T01:02:51;7.3;;;2.0;;
67429;SDS011;54298;52.076;5.264;2022-07-12T01:04:40;7.3;;;2.4;;
67429;SDS011;54298;52.076;5.264;2022-07-12T01:06:28;5.6;;;2.31;;
67429;SDS011;54298;52.076;5.264;2022-07-12T01:10:05;5.6;;;2.21;;
67429;SDS011;54298;52.076;5.264;2022-07-12T01:11:53;6.6;;;2.4;;
67429;SDS011;54298;52.076;5.264;2022-07-12T01:13:40;6.3;;;2.5;;
67429;SDS011;54298;52.076;5.264;2022-07-12T01:15:28;6.3;;;2.5;;
67429;SDS011;54298;52.076;5.264;2022-07-12T01:17:14;5.3;;;2.31;;
67429;SDS011;54298;52.076;5.264;2022-07-12T01:19:03;5.2;;;2.4;;
67429;SDS011;54298;52.076;5.264;2022-07-12T01:20:52;7.9;;;2.5;;
67429;SDS011;54298;52.076;5.264;2022-07-12T01:24:28;7.5;;;2.6;;
67429;SDS011;54298;52.076;5.264;2022-07-12T01:26:14;6.5;;;2.4;;
67429;SDS011;54298;52.076;5.264;2022-07-12T01:28:02;6.3;;;2.31;;
67429;SDS011;54298;52.076;5.264;2022-07-12T01:29:49;5.11;;;2.4;;
67429;SDS011;54298;52.076;5.264;2022-07-12T01:31:35;6.4;;;2.31;;
67429;SDS011;54298;52.076;5.264;2022-07-12T01:35:11;6.7;;;2.31;;
67429;SDS011;54298;52.076;5.264;2022-07-12T01:36:57;8.5;;;2.6;;
67429;SDS011;54298;52.076;5.264;2022-07-12T01:38:44;5.11;;;2.31;;
67429;SDS011;54298;52.076;5.264;2022-07-12T01:40:30;7.2;;;2.4;;
67429;SDS011;54298;52.076;5.264;2022-07-12T01:42:17;5.6;;;2.5;;
67429;SDS011;54298;52.076;5.264;2022-07-12T01:44:04;7.2;;;2.21;;
67429;SDS011;54298;52.076;5.264;2022-07-12T01:47:38;4.7;;;2.31;;
67429;SDS011;54298;52.076;5.264;2022-07-12T01:49:25;5.3;;;2.1;;
67429;SDS011;54298;52.076;5.264;2022-07-12T01:51:14;4.1;;;2.31;;
67429;SDS011;54298;52.076;5.264;2022-07-12T01:53:01;5.3;;;2.21;;
67429;SDS011;54298;52.076;5.264;2022-07-12T01:54:52;5.9;;;2.1;;
67429;SDS011;54298;52.076;5.264;2022-07-12T01:56:40;7.0;;;1.9;;
67429;SDS011;54298;52.076;5.264;2022-07-12T02:02:00;6.0;;;2.1;;
67429;SDS011;54298;52.076;5.264;2022-07-12T02:03:48;6.2;;;2.31;;
67429;SDS011;54298;52.076;5.264;2022-07-12T02:05:35;10.0;;;2.9;;
67429;SDS011;54298;52.076;5.264;2022-07-12T02:07:23;6.5;;;2.5;;
67429;SDS011;54298;52.076;5.264;2022-07-12T02:09:10;4.91;;;2.5;;
67429;SDS011;54298;52.076;5.264;2022-07-12T02:12:43;4.7;;;2.1;;
67429;SDS011;54298;52.076;5.264;2022-07-12T02:14:29;4.61;;;2.4;;
67429;SDS011;54298;52.076;5.264;2022-07-12T02:16:16;5.9;;;2.6;;
67429;SDS011;54298;52.076;5.264;2022-07-12T02:18:03;5.7;;;2.21;;
67429;SDS011;54298;52.076;5.264;2022-07-12T02:19:49;5.3;;;2.6;;
67429;SDS011;54298;52.076;5.264;2022-07-12T02:21:36;7.0;;;2.31;;
67429;SDS011;54298;52.076;5.264;2022-07-12T02:25:09;6.0;;;2.4;;
67429;SDS011;54298;52.076;5.264;2022-07-12T02:26:56;5.8;;;2.4;;
67429;SDS011;54298;52.076;5.264;2022-07-12T02:28:43;3.6;;;2.1;;
67429;SDS011;54298;52.076;5.264;2022-07-12T02:30:29;4.0;;;2.1;;
67429;SDS011;54298;52.076;5.264;2022-07-12T02:32:15;3.9;;;2.1;;
67429;SDS011;54298;52.076;5.264;2022-07-12T02:35:52;4.7;;;2.21;;
67429;SDS011;54298;52.076;5.264;2022-07-12T02:37:38;6.8;;;2.21;;
67429;SDS011;54298;52.076;5.264;2022-07-12T02:39:24;4.1;;;2.0;;
67429;SDS011;54298;52.076;5.264;2022-07-12T02:41:11;4.1;;;2.0;;
67429;SDS011;54298;52.076;5.264;2022-07-12T02:42:57;4.3;;;1.9;;
67429;SDS011;54298;52.076;5.264;2022-07-12T02:44:44;3.6;;;1.9;;
67429;SDS011;54298;52.076;5.264;2022-07-12T02:48:16;3.2;;;1.8;;
67429;SDS011;54298;52.076;5.264;2022-07-12T02:50:04;5.4;;;2.21;;
67429;SDS011;54298;52.076;5.264;2022-07-12T02:51:51;6.2;;;2.6;;
67429;SDS011;54298;52.076;5.264;2022-07-12T02:53:37;3.5;;;2.21;;
67429;SDS011;54298;52.076;5.264;2022-07-12T02:55:24;5.0;;;2.1;;
67429;SDS011;54298;52.076;5.264;2022-07-12T02:57:10;4.3;;;2.21;;
67429;SDS011;54298;52.076;5.264;2022-07-12T03:00:44;3.7;;;2.1;;
67429;SDS011;54298;52.076;5.264;2022-07-12T03:02:32;5.0;;;2.21;;
67429;SDS011;54298;52.076;5.264;2022-07-12T03:04:18;5.11;;;2.21;;
67429;SDS011;54298;52.076;5.264;2022-07-12T03:06:04;5.5;;;2.1;;
67429;SDS011;54298;52.076;5.264;2022-07-12T03:07:51;3.4;;;2.21;;
67429;SDS011;54298;52.076;5.264;2022-07-12T03:09:39;4.0;;;2.0;;
67429;SDS011;54298;52.076;5.264;2022-07-12T03:13:13;5.2;;;2.1;;
67429;SDS011;54298;52.076;5.264;2022-07-12T03:14:59;4.1;;;2.31;;
67429;SDS011;54298;52.076;5.264;2022-07-12T03:16:45;4.61;;;2.31;;
67429;SDS011;54298;52.076;5.264;2022-07-12T03:18:31;5.0;;;2.21;;
67429;SDS011;54298;52.076;5.264;2022-07-12T03:20:17;4.61;;;1.9;;
67429;SDS011;54298;52.076;5.264;2022-07-12T03:23:50;6.1;;;2.1;;
67429;SDS011;54298;52.076;5.264;2022-07-12T03:25:36;4.3;;;2.21;;
67429;SDS011;54298;52.076;5.264;2022-07-12T03:27:22;3.6;;;1.8;;
67429;SDS011;54298;52.076;5.264;2022-07-12T03:29:08;3.6;;;2.21;;
67429;SDS011;54298;52.076;5.264;2022-07-12T03:30:54;4.1;;;2.31;;
67429;SDS011;54298;52.076;5.264;2022-07-12T03:32:41;4.1;;;2.0;;
67429;SDS011;54298;52.076;5.264;2022-07-12T03:36:14;4.41;;;2.1;;
67429;SDS011;54298;52.076;5.264;2022-07-12T03:38:00;4.1;;;2.6;;
67429;SDS011;54298;52.076;5.264;2022-07-12T03:39:48;4.0;;;2.21;;
67429;SDS011;54298;52.076;5.264;2022-07-12T03:41:35;3.0;;;2.21;;
67429;SDS011;54298;52.076;5.264;2022-07-12T03:43:21;5.6;;;2.21;;
67429;SDS011;54298;52.076;5.264;2022-07-12T03:46:56;4.1;;;2.31;;
67429;SDS011;54298;52.076;5.264;2022-07-12T03:48:42;3.7;;;1.8;;
67429;SDS011;54298;52.076;5.264;2022-07-12T03:50:29;3.8;;;2.31;;
67429;SDS011;54298;52.076;5.264;2022-07-12T03:52:15;5.9;;;2.31;;
67429;SDS011;54298;52.076;5.264;2022-07-12T03:54:01;3.3;;;2.31;;
67429;SDS011;54298;52.076;5.264;2022-07-12T03:55:47;4.1;;;2.31;;
67429;SDS011;54298;52.076;5.264;2022-07-12T03:59:21;3.6;;;2.1;;
67429;SDS011;54298;52.076;5.264;2022-07-12T04:01:08;5.2;;;2.21;;
67429;SDS011;54298;52.076;5.264;2022-07-12T04:02:54;4.0;;;2.0;;
67429;SDS011;54298;52.076;5.264;2022-07-12T04:04:41;4.61;;;1.9;;
67429;SDS011;54298;52.076;5.264;2022-07-12T04:06:27;4.3;;;2.0;;
67429;SDS011;54298;52.076;5.264;2022-07-12T04:08:16;3.4;;;2.0;;
67429;SDS011;54298;52.076;5.264;2022-07-12T04:11:51;3.6;;;2.1;;
67429;SDS011;54298;52.076;5.264;2022-07-12T04:13:37;4.41;;;2.0;;
67429;SDS011;54298;52.076;5.264;2022-07-12T04:15:23;3.5;;;2.1;;
67429;SDS011;54298;52.076;5.264;2022-07-12T04:17:09;3.5;;;2.31;;
67429;SDS011;54298;52.076;5.264;2022-07-12T04:18:56;3.5;;;1.9;;
67429;SDS011;54298;52.076;5.264;2022-07-12T04:22:29;4.41;;;2.21;;
67429;SDS011;54298;52.076;5.264;2022-07-12T04:24:15;4.5;;;2.21;;
67429;SDS011;54298;52.076;5.264;2022-07-12T04:26:01;3.4;;;1.8;;
67429;SDS011;54298;52.076;5.264;2022-07-12T04:27:49;4.3;;;2.1;;
67429;SDS011;54298;52.076;5.264;2022-07-12T04:29:35;3.0;;;2.21;;
67429;SDS011;54298;52.076;5.264;2022-07-12T04:31:22;3.2;;;1.7;;
67429;SDS011;54298;52.076;5.264;2022-07-12T04:34:57;3.0;;;1.8;;
67429;SDS011;54298;52.076;5.264;2022-07-12T04:36:44;4.1;;;1.9;;
67429;SDS011;54298;52.076;5.264;2022-07-12T04:38:31;2.6;;;1.7;;
67429;SDS011;54298;52.076;5.264;2022-07-12T04:40:17;5.0;;;1.9;;
67429;SDS011;54298;52.076;5.264;2022-07-12T04:42:04;3.9;;;1.9;;
67429;SDS011;54298;52.076;5.264;2022-07-12T04:43:51;2.4;;;1.8;;
67429;SDS011;54298;52.076;5.264;2022-07-12T04:47:24;3.2;;;1.8;;
67429;SDS011;54298;52.076;5.264;2022-07-12T04:49:11;4.3;;;1.8;;
67429;SDS011;54298;52.076;5.264;2022-07-12T04:50:57;3.0;;;1.8;;
67429;SDS011;54298;52.076;5.264;2022-07-12T04:52:43;2.7;;;1.8;;
67429;SDS011;54298;52.076;5.264;2022-07-12T04:54:29;2.8;;;1.7;;
67429;SDS011;54298;52.076;5.264;2022-07-12T04:58:02;3.9;;;1.9;;
67429;SDS011;54298;52.076;5.264;2022-07-12T04:59:49;3.7;;;1.9;;
67429;SDS011;54298;52.076;5.264;2022-07-12T05:01:36;4.41;;;2.0;;
67429;SDS011;54298;52.076;5.264;2022-07-12T05:03:26;3.5;;;1.8;;
67429;SDS011;54298;52.076;5.264;2022-07-12T05:05:12;2.9;;;2.0;;
67429;SDS011;54298;52.076;5.264;2022-07-12T05:07:00;3.5;;;1.8;;
67429;SDS011;54298;52.076;5.264;2022-07-12T05:10:33;2.8;;;1.8;;
67429;SDS011;54298;52.076;5.264;2022-07-12T05:12:19;3.7;;;1.9;;
67429;SDS011;54298;52.076;5.264;2022-07-12T05:14:05;2.5;;;1.9;;
67429;SDS011;54298;52.076;5.264;2022-07-12T05:15:51;3.8;;;1.9;;
67429;SDS011;54298;52.076;5.264;2022-07-12T05:17:38;4.2;;;1.8;;
67429;SDS011;54298;52.076;5.264;2022-07-12T05:19:24;2.8;;;1.7;;
67429;SDS011;54298;52.076;5.264;2022-07-12T05:22:57;3.8;;;1.8;;
67429;SDS011;54298;52.076;5.264;2022-07-12T05:24:43;3.1;;;1.9;;
67429;SDS011;54298;52.076;5.264;2022-07-12T05:26:29;2.5;;;1.6;;
67429;SDS011;54298;52.076;5.264;2022-07-12T05:30:03;4.2;;;2.0;;
67429;SDS011;54298;52.076;5.264;2022-07-12T05:33:41;5.4;;;1.9;;
67429;SDS011;54298;52.076;5.264;2022-07-12T05:37:14;4.41;;;2.1;;
67429;SDS011;54298;52.076;5.264;2022-07-12T05:39:02;4.0;;;1.8;;
67429;SDS011;54298;52.076;5.264;2022-07-12T05:40:48;4.8;;;1.9;;
67429;SDS011;54298;52.076;5.264;2022-07-12T05:42:34;6.0;;;2.0;;
67429;SDS011;54298;52.076;5.264;2022-07-12T05:46:09;8.4;;;2.21;;
67429;SDS011;54298;52.076;5.264;2022-07-12T05:47:55;4.3;;;2.21;;
67429;SDS011;54298;52.076;5.264;2022-07-12T05:49:42;7.6;;;3.6;;
67429;SDS011;54298;52.076;5.264;2022-07-12T05:54:33;7.1;;;4.0;;
67429;SDS011;54298;52.076;5.264;2022-07-12T05:56:20;9.5;;;4.61;;
67429;SDS011;54298;52.076;5.264;2022-07-12T05:58:06;9.1;;;5.11;;
67429;SDS011;54298;52.076;5.264;2022-07-12T05:59:53;8.5;;;5.9;;
67429;SDS011;54298;52.076;5.264;2022-07-12T06:01:39;9.5;;;5.8;;
67429;SDS011;54298;52.076;5.264;2022-07-12T06:03:26;9.5;;;6.0;;
67429;SDS011;54298;52.076;5.264;2022-07-12T06:06:59;6.6;;;4.7;;
67429;SDS011;54298;52.076;5.264;2022-07-12T06:08:45;8.6;;;5.5;;
67429;SDS011;54298;52.076;5.264;2022-07-12T06:10:33;7.8;;;5.7;;
67429;SDS011;54298;52.076;5.264;2022-07-12T06:12:20;8.81;;;5.7;;
67429;SDS011;54298;52.076;5.264;2022-07-12T06:14:07;8.71;;;5.7;;
67429;SDS011;54298;52.076;5.264;2022-07-12T06:15:53;7.8;;;5.11;;
67429;SDS011;54298;52.076;5.264;2022-07-12T06:19:26;6.8;;;4.91;;
67429;SDS011;54298;52.076;5.264;2022-07-12T06:21:13;10.1;;;5.6;;
67429;SDS011;54298;52.076;5.264;2022-07-12T06:22:59;7.3;;;5.2;;
67429;SDS011;54298;52.076;5.264;2022-07-12T06:24:46;8.2;;;4.7;;
67429;SDS011;54298;52.076;5.264;2022-07-12T06:26:32;7.0;;;4.61;;
67429;SDS011;54298;52.076;5.264;2022-07-12T06:30:06;7.3;;;4.7;;
67429;SDS011;54298;52.076;5.264;2022-07-12T06:31:54;13.5;;;4.3;;
67429;SDS011;54298;52.076;5.264;2022-07-12T06:33:40;5.11;;;3.5;;
67429;SDS011;54298;52.076;5.264;2022-07-12T06:35:27;7.6;;;5.2;;
67429;SDS011;54298;52.076;5.264;2022-07-12T06:37:15;5.6;;;3.7;;
67429;SDS011;54298;52.076;5.264;2022-07-12T06:39:01;3.7;;;3.0;;
67429;SDS011;54298;52.076;5.264;2022-07-12T06:42:35;6.1;;;3.9;;
67429;SDS011;54298;52.076;5.264;2022-07-12T06:44:22;7.4;;;4.2;;
67429;SDS011;54298;52.076;5.264;2022-07-12T06:46:08;5.0;;;3.5;;
67429;SDS011;54298;52.076;5.264;2022-07-12T06:47:54;4.5;;;3.4;;
67429;SDS011;54298;52.076;5.264;2022-07-12T06:49:41;5.8;;;3.8;;
67429;SDS011;54298;52.076;5.264;2022-07-12T06:51:27;5.8;;;3.8;;
67429;SDS011;54298;52.076;5.264;2022-07-12T06:55:00;4.7;;;3.7;;
67429;SDS011;54298;52.076;5.264;2022-07-12T06:56:46;5.11;;;3.5;;
67429;SDS011;54298;52.076;5.264;2022-07-12T06:58:33;6.1;;;3.3;;
67429;SDS011;54298;52.076;5.264;2022-07-12T07:00:21;4.5;;;3.5;;
67429;SDS011;54298;52.076;5.264;2022-07-12T07:02:07;4.7;;;3.5;;
67429;SDS011;54298;52.076;5.264;2022-07-12T07:05:40;4.7;;;3.9;;
67429;SDS011;54298;52.076;5.264;2022-07-12T07:07:26;5.0;;;3.6;;
67429;SDS011;54298;52.076;5.264;2022-07-12T07:09:14;5.11;;;3.2;;
67429;SDS011;54298;52.076;5.264;2022-07-12T07:11:01;5.7;;;3.8;;
67429;SDS011;54298;52.076;5.264;2022-07-12T07:12:47;5.6;;;4.0;;
67429;SDS011;54298;52.076;5.264;2022-07-12T07:14:34;4.7;;;3.7;;
67429;SDS011;54298;52.076;5.264;2022-07-12T07:18:08;5.0;;;3.6;;
67429;SDS011;54298;52.076;5.264;2022-07-12T07:19:55;5.7;;;3.9;;
67429;SDS011;54298;52.076;5.264;2022-07-12T07:21:41;5.7;;;4.2;;
67429;SDS011;54298;52.076;5.264;2022-07-12T07:23:28;5.8;;;4.0;;
67429;SDS011;54298;52.076;5.264;2022-07-12T07:25:17;8.71;;;4.5;;
67429;SDS011;54298;52.076;5.264;2022-07-12T07:27:04;6.3;;;4.5;;
67429;SDS011;54298;52.076;5.264;2022-07-12T07:31:54;6.7;;;4.5;;
67429;SDS011;54298;52.076;5.264;2022-07-12T07:33:40;6.4;;;4.61;;
67429;SDS011;54298;52.076;5.264;2022-07-12T07:35:26;7.5;;;4.7;;
67429;SDS011;54298;52.076;5.264;2022-07-12T07:38:58;5.4;;;4.1;;
67429;SDS011;54298;52.076;5.264;2022-07-12T07:40:45;6.7;;;4.3;;
67429;SDS011;54298;52.076;5.264;2022-07-12T07:42:32;4.91;;;3.7;;
67429;SDS011;54298;52.076;5.264;2022-07-12T07:44:18;8.0;;;4.91;;
67429;SDS011;54298;52.076;5.264;2022-07-12T07:46:04;7.8;;;4.3;;
67429;SDS011;54298;52.076;5.264;2022-07-12T07:47:51;4.5;;;3.7;;
67429;SDS011;54298;52.076;5.264;2022-07-12T07:51:26;5.6;;;3.9;;
67429;SDS011;54298;52.076;5.264;2022-07-12T07:53:13;5.3;;;3.6;;
67429;SDS011;54298;52.076;5.264;2022-07-12T07:55:01;5.5;;;4.1;;
67429;SDS011;54298;52.076;5.264;2022-07-12T07:56:47;5.11;;;3.4;;
67429;SDS011;54298;52.076;5.264;2022-07-12T07:58:33;6.0;;;3.6;;
67429;SDS011;54298;52.076;5.264;2022-07-12T08:02:06;6.1;;;4.41;;
67429;SDS011;54298;52.076;5.264;2022-07-12T08:03:52;7.1;;;4.2;;
67429;SDS011;54298;52.076;5.264;2022-07-12T08:05:38;5.9;;;4.2;;
67429;SDS011;54298;52.076;5.264;2022-07-12T08:07:24;6.3;;;4.41;;
67429;SDS011;54298;52.076;5.264;2022-07-12T08:09:10;5.3;;;4.1;;
67429;SDS011;54298;52.076;5.264;2022-07-12T08:10:58;4.41;;;3.3;;
67429;SDS011;54298;52.076;5.264;2022-07-12T08:14:30;4.8;;;3.3;;
67429;SDS011;54298;52.076;5.264;2022-07-12T08:16:16;5.6;;;4.41;;
67429;SDS011;54298;52.076;5.264;2022-07-12T08:18:03;6.2;;;4.41;;
67429;SDS011;54298;52.076;5.264;2022-07-12T08:19:49;5.0;;;3.8;;
67429;SDS011;54298;52.076;5.264;2022-07-12T08:21:36;5.11;;;3.9;;
67429;SDS011;54298;52.076;5.264;2022-07-12T08:25:11;5.6;;;4.3;;
67429;SDS011;54298;52.076;5.264;2022-07-12T08:26:57;5.9;;;4.1;;
67429;SDS011;54298;52.076;5.264;2022-07-12T08:28:43;6.0;;;3.5;;
67429;SDS011;54298;52.076;5.264;2022-07-12T08:30:29;5.9;;;4.41;;
67429;SDS011;54298;52.076;5.264;2022-07-12T08:32:17;7.5;;;5.3;;
67429;SDS011;54298;52.076;5.264;2022-07-12T08:34:03;6.8;;;4.8;;
67429;SDS011;54298;52.076;5.264;2022-07-12T08:37:36;5.2;;;4.2;;
67429;SDS011;54298;52.076;5.264;2022-07-12T08:39:22;6.3;;;4.3;;
67429;SDS011;54298;52.076;5.264;2022-07-12T08:41:10;5.0;;;3.7;;
67429;SDS011;54298;52.076;5.264;2022-07-12T08:43:00;6.6;;;4.5;;
67429;SDS011;54298;52.076;5.264;2022-07-12T08:44:53;6.3;;;4.41;;
67429;SDS011;54298;52.076;5.264;2022-07-12T08:46:40;7.6;;;5.11;;
67429;SDS011;54298;52.076;5.264;2022-07-12T08:50:14;7.3;;;4.7;;
67429;SDS011;54298;52.076;5.264;2022-07-12T08:52:17;7.3;;;5.6;;
67429;SDS011;54298;52.076;5.264;2022-07-12T08:54:12;7.5;;;5.8;;
67429;SDS011;54298;52.076;5.264;2022-07-12T08:55:59;7.6;;;5.6;;
67429;SDS011;54298;52.076;5.264;2022-07-12T08:57:46;6.4;;;5.0;;
67429;SDS011;54298;52.076;5.264;2022-07-12T08:59:33;6.2;;;4.7;;
67429;SDS011;54298;52.076;5.264;2022-07-12T09:01:34;6.9;;;5.2;;
67429;SDS011;54298;52.076;5.264;2022-07-12T09:03:25;7.7;;;5.3;;
67429;SDS011;54298;52.076;5.264;2022-07-12T09:07:04;7.2;;;5.4;;
67429;SDS011;54298;52.076;5.264;2022-07-12T09:08:59;7.1;;;5.6;;
67429;SDS011;54298;52.076;5.264;2022-07-12T09:10:54;10.3;;;6.4;;
67429;SDS011;54298;52.076;5.264;2022-07-12T09:12:50;7.6;;;5.6;;
67429;SDS011;54298;52.076;5.264;2022-07-12T09:14:36;7.0;;;5.2;;
67429;SDS011;54298;52.076;5.264;2022-07-12T09:16:23;7.0;;;5.2;;
67429;SDS011;54298;52.076;5.264;2022-07-12T09:18:13;8.2;;;5.11;;
67429;SDS011;54298;52.076;5.264;2022-07-12T09:20:01;7.0;;;5.11;;
67429;SDS011;54298;52.076;5.264;2022-07-12T09:23:50;7.1;;;5.8;;
67429;SDS011;54298;52.076;5.264;2022-07-12T09:25:38;7.1;;;4.7;;
67429;SDS011;54298;52.076;5.264;2022-07-12T09:27:29;7.1;;;5.5;;
67429;SDS011;54298;52.076;5.264;2022-07-12T09:29:18;8.6;;;5.9;;
67429;SDS011;54298;52.076;5.264;2022-07-12T09:31:06;6.3;;;4.7;;
67429;SDS011;54298;52.076;5.264;2022-07-12T09:36:12;6.1;;;4.41;;
67429;SDS011;54298;52.076;5.264;2022-07-12T09:38:07;9.21;;;5.3;;
67429;SDS011;54298;52.076;5.264;2022-07-12T09:39:54;7.1;;;3.4;;
67429;SDS011;54298;52.076;5.264;2022-07-12T09:41:42;6.0;;;4.2;;
67429;SDS011;54298;52.076;5.264;2022-07-12T09:43:30;7.6;;;4.61;;
67429;SDS011;54298;52.076;5.264;2022-07-12T09:45:17;6.3;;;3.3;;
67429;SDS011;54298;52.076;5.264;2022-07-12T09:48:55;4.8;;;3.0;;
67429;SDS011;54298;52.076;5.264;2022-07-12T09:50:46;4.41;;;2.7;;
67429;SDS011;54298;52.076;5.264;2022-07-12T09:52:35;4.5;;;2.4;;
67429;SDS011;54298;52.076;5.264;2022-07-12T09:54:24;4.7;;;2.31;;
67429;SDS011;54298;52.076;5.264;2022-07-12T09:56:14;4.61;;;3.0;;
67429;SDS011;54298;52.076;5.264;2022-07-12T09:58:03;5.4;;;3.2;;
67429;SDS011;54298;52.076;5.264;2022-07-12T09:59:52;4.3;;;2.6;;
67429;SDS011;54298;52.076;5.264;2022-07-12T10:03:26;3.8;;;2.4;;
67429;SDS011;54298;52.076;5.264;2022-07-12T10:05:16;4.61;;;2.5;;
67429;SDS011;54298;52.076;5.264;2022-07-12T10:07:05;4.0;;;2.31;;
67429;SDS011;54298;52.076;5.264;2022-07-12T10:08:54;4.7;;;3.0;;
67429;SDS011;54298;52.076;5.264;2022-07-12T10:10:41;2.8;;;2.21;;
67429;SDS011;54298;52.076;5.264;2022-07-12T10:12:28;3.2;;;2.4;;
67429;SDS011;54298;52.076;5.264;2022-07-12T10:16:05;4.1;;;2.21;;
67429;SDS011;54298;52.076;5.264;2022-07-12T10:17:56;3.5;;;1.8;;
67429;SDS011;54298;52.076;5.264;2022-07-12T10:19:46;4.5;;;3.3;;
67429;SDS011;54298;52.076;5.264;2022-07-12T10:21:32;5.5;;;2.6;;
67429;SDS011;54298;52.076;5.264;2022-07-12T10:23:27;2.9;;;1.8;;
67429;SDS011;54298;52.076;5.264;2022-07-12T10:25:34;4.0;;;2.4;;
67429;SDS011;54298;52.076;5.264;2022-07-12T10:27:35;4.0;;;2.5;;
67429;SDS011;54298;52.076;5.264;2022-07-12T10:29:23;2.7;;;2.0;;
67429;SDS011;54298;52.076;5.264;2022-07-12T10:31:10;3.3;;;2.5;;
67429;SDS011;54298;52.076;5.264;2022-07-12T10:34:55;6.2;;;2.5;;
67429;SDS011;54298;52.076;5.264;2022-07-12T10:37:15;6.9;;;3.0;;
67429;SDS011;54298;52.076;5.264;2022-07-12T10:39:11;5.7;;;3.4;;
67429;SDS011;54298;52.076;5.264;2022-07-12T10:41:15;4.1;;;2.31;;
67429;SDS011;54298;52.076;5.264;2022-07-12T10:43:19;3.6;;;2.6;;
67429;SDS011;54298;52.076;5.264;2022-07-12T10:45:11;5.8;;;2.6;;
67429;SDS011;54298;52.076;5.264;2022-07-12T10:47:00;5.11;;;3.1;;
67429;SDS011;54298;52.076;5.264;2022-07-12T10:48:48;5.4;;;2.21;;
67429;SDS011;54298;52.076;5.264;2022-07-12T10:51:12;3.0;;;1.9;;
67429;SDS011;54298;52.076;5.264;2022-07-12T10:53:19;6.7;;;1.7;;
67429;SDS011;54298;52.076;5.264;2022-07-12T10:55:15;4.41;;;2.8;;
67429;SDS011;54298;52.076;5.264;2022-07-12T10:57:04;4.2;;;2.6;;
67429;SDS011;54298;52.076;5.264;2022-07-12T10:58:53;4.1;;;2.4;;
67429;SDS011;54298;52.076;5.264;2022-07-12T11:00:42;3.7;;;2.4;;
67429;SDS011;54298;52.076;5.264;2022-07-12T11:02:29;3.0;;;1.7;;
67429;SDS011;54298;52.076;5.264;2022-07-12T11:06:04;6.2;;;2.5;;
67429;SDS011;54298;52.076;5.264;2022-07-12T11:07:53;4.41;;;2.8;;
67429;SDS011;54298;52.076;5.264;2022-07-12T11:09:41;6.3;;;3.4;;
67429;SDS011;54298;52.076;5.264;2022-07-12T11:11:28;4.7;;;2.8;;
67429;SDS011;54298;52.076;5.264;2022-07-12T11:13:19;4.7;;;2.8;;
67429;SDS011;54298;52.076;5.264;2022-07-12T11:15:09;5.3;;;2.9;;
67429;SDS011;54298;52.076;5.264;2022-07-12T11:18:44;4.5;;;1.9;;
67429;SDS011;54298;52.076;5.264;2022-07-12T11:20:31;5.11;;;3.0;;
67429;SDS011;54298;52.076;5.264;2022-07-12T11:22:17;2.6;;;1.9;;
67429;SDS011;54298;52.076;5.264;2022-07-12T11:24:14;5.0;;;2.4;;
67429;SDS011;54298;52.076;5.264;2022-07-12T11:26:03;2.6;;;1.9;;
67429;SDS011;54298;52.076;5.264;2022-07-12T11:27:49;2.6;;;1.8;;
67429;SDS011;54298;52.076;5.264;2022-07-12T11:29:36;2.5;;;1.8;;
67429;SDS011;54298;52.076;5.264;2022-07-12T11:33:12;3.4;;;1.7;;
67429;SDS011;54298;52.076;5.264;2022-07-12T11:34:58;3.3;;;2.4;;
67429;SDS011;54298;52.076;5.264;2022-07-12T11:36:45;3.3;;;2.1;;
67429;SDS011;54298;52.076;5.264;2022-07-12T11:38:32;3.5;;;1.9;;
67429;SDS011;54298;52.076;5.264;2022-07-12T11:40:22;6.9;;;4.1;;
67429;SDS011;54298;52.076;5.264;2022-07-12T11:42:10;3.9;;;2.4;;
67429;SDS011;54298;52.076;5.264;2022-07-12T11:45:43;14.4;;;7.7;;
67429;SDS011;54298;52.076;5.264;2022-07-12T11:47:30;4.7;;;3.2;;
67429;SDS011;54298;52.076;5.264;2022-07-12T11:49:19;4.7;;;3.2;;
67429;SDS011;54298;52.076;5.264;2022-07-12T11:51:06;3.3;;;2.0;;
67429;SDS011;54298;52.076;5.264;2022-07-12T11:52:54;3.0;;;1.8;;
67429;SDS011;54298;52.076;5.264;2022-07-12T11:54:42;5.6;;;1.8;;
67429;SDS011;54298;52.076;5.264;2022-07-12T11:58:16;5.7;;;3.1;;
67429;SDS011;54298;52.076;5.264;2022-07-12T12:00:20;7.4;;;4.91;;
67429;SDS011;54298;52.076;5.264;2022-07-12T12:02:09;6.1;;;3.0;;
67429;SDS011;54298;52.076;5.264;2022-07-12T12:03:57;5.6;;;2.8;;
67429;SDS011;54298;52.076;5.264;2022-07-12T12:05:44;2.9;;;1.7;;
67429;SDS011;54298;52.076;5.264;2022-07-12T12:07:32;3.6;;;2.4;;
67429;SDS011;54298;52.076;5.264;2022-07-12T12:11:06;4.3;;;2.1;;
67429;SDS011;54298;52.076;5.264;2022-07-12T12:12:52;2.9;;;1.9;;
67429;SDS011;54298;52.076;5.264;2022-07-12T12:14:40;3.0;;;1.9;;
67429;SDS011;54298;52.076;5.264;2022-07-12T12:16:31;3.0;;;1.9;;
67429;SDS011;54298;52.076;5.264;2022-07-12T12:18:35;2.21;;;1.5;;
67429;SDS011;54298;52.076;5.264;2022-07-12T12:20:24;2.5;;;1.6;;
67429;SDS011;54298;52.076;5.264;2022-07-12T12:22:26;2.9;;;1.3;;
67429;SDS011;54298;52.076;5.264;2022-07-12T12:24:13;3.8;;;1.5;;
67429;SDS011;54298;52.076;5.264;2022-07-12T12:28:04;2.9;;;1.3;;
67429;SDS011;54298;52.076;5.264;2022-07-12T12:29:51;5.7;;;1.8;;
67429;SDS011;54298;52.076;5.264;2022-07-12T12:31:38;3.5;;;1.4;;
67429;SDS011;54298;52.076;5.264;2022-07-12T12:33:41;4.2;;;1.4;;
67429;SDS011;54298;52.076;5.264;2022-07-12T12:35:30;2.9;;;1.8;;
67429;SDS011;54298;52.076;5.264;2022-07-12T12:37:18;2.7;;;1.6;;
67429;SDS011;54298;52.076;5.264;2022-07-12T12:39:05;3.7;;;1.5;;
67429;SDS011;54298;52.076;5.264;2022-07-12T12:40:52;3.8;;;1.8;;
67429;SDS011;54298;52.076;5.264;2022-07-12T12:44:25;3.9;;;1.7;;
67429;SDS011;54298;52.076;5.264;2022-07-12T12:46:12;5.11;;;1.7;;
67429;SDS011;54298;52.076;5.264;2022-07-12T12:47:59;2.5;;;1.4;;
67429;SDS011;54298;52.076;5.264;2022-07-12T12:49:49;2.7;;;1.4;;
67429;SDS011;54298;52.076;5.264;2022-07-12T12:51:49;4.41;;;1.8;;
67429;SDS011;54298;52.076;5.264;2022-07-12T12:53:37;2.0;;;1.4;;
67429;SDS011;54298;52.076;5.264;2022-07-12T12:55:25;1.5;;;1.2;;
67429;SDS011;54298;52.076;5.264;2022-07-12T12:58:58;3.7;;;1.2;;
67429;SDS011;54298;52.076;5.264;2022-07-12T13:00:45;2.4;;;1.6;;
67429;SDS011;54298;52.076;5.264;2022-07-12T13:02:34;2.8;;;1.6;;
67429;SDS011;54298;52.076;5.264;2022-07-12T13:04:21;5.5;;;2.21;;
67429;SDS011;54298;52.076;5.264;2022-07-12T13:06:08;3.4;;;1.9;;
67429;SDS011;54298;52.076;5.264;2022-07-12T13:09:40;3.3;;;1.9;;